Terminal Aerodrome Forecast
Issued by NWS

Home | Current Version | Previous Version | Text Only | Print | Product List | Glossary On
Versions: 1 2 3 4 5 6 7 8 9 10 11 12 13
000
FTPA31 PHFO 231131
TAFHJR
TAF
PHJR 231131Z 2312/2412 04006KT P6SM FEW060
     FM232000 04014G24KT P6SM SCT060
     FM240400 04007KT P6SM FEW060=

USA.gov is the U.S. government's official web portal to all federal, state and local government web resources and services.